KAVL/AVL METAR and TAF weather

Enter ICAO airport designator
Station Type Date Time Source
KAVL METAR 2021/04/17 01:54 UTC NOAA

KAVL 170154Z 34009KT 10SM CLR 12/M01 A2988 RMK AO2 SLP110 T01171006


Station Type Date Time Source
KAVL Decoded METAR 2021/04/17 01:54 UTC NOAA

ASHEVILLE REGIONAL AIRPORT, NC, United States (KAVL) 35-26N 82-32W 670M
Apr 16, 2021 - 09:54 PM EDT / 2021.04.17 0154 UTC
Wind: from the NNW (340 degrees) at 10 MPH (9 KT):0
Visibility: 10 mile(s):0
Sky conditions: clear
Temperature: 53.1 F (11.7 C)
Dew Point: 30.9 F (-0.6 C)
Relative Humidity: 42%
Pressure (altimeter): 29.88 in. Hg (1011 hPa)
ob: KAVL 170154Z 34009KT 10SM CLR 12/M01 A2988 RMK AO2 SLP110 T01171006
cycle: 2

Station Type Date Time Source
KAVL TAF 2021/04/16 21:22 UTC NOAA

TAF
AMD KAVL 162120Z 1621/1718 VRB03KT P6SM SCT250
FM170000 33005KT P6SM BKN200
FM171100 26003KT P6SM VCSH SCT045 OVC080 PROB30 1713/1717 6SM -SHRA BR
FM171700 32005KT P6SM BKN024

Example: see airport list